Time;durP1;ratioP1;P1;durP2;ratioP2;P2;SDS_P1;SDS_P2;PMS_P1;PMS_P2;Temp;Humidity;BMP_temperature;BMP_pressure;BME280_temperature;BME280_humidity;BME280_pressure;Samples;Min_cycle;Max_cycle;Signal;HPM_P1;HPM_P2
2022/10/04 00:01:05;;;;;;;31.35;26.77;;;;;;;9.53;100.00;101673.41;5024186;28;20081;-81
2022/10/04 00:03:36;;;;;;;40.20;31.95;;;;;;;9.57;100.00;101683.47;5023108;28;20081;-81
2022/10/04 00:06:04;;;;;;;29.13;23.88;;;;;;;9.53;100.00;101678.63;5021921;28;20056;-80
2022/10/04 00:08:40;;;;;;;31.50;24.45;;;;;;;9.45;100.00;101675.81;5021448;28;20136;-82
2022/10/04 00:11:15;;;;;;;35.03;29.58;;;;;;;9.45;100.00;101674.00;5022850;28;20448;-80
2022/10/04 00:13:48;;;;;;;32.60;24.42;;;;;;;9.51;100.00;101676.13;5020723;28;20073;-81
2022/10/04 00:16:23;;;;;;;38.45;29.90;;;;;;;9.48;100.00;101673.75;5027052;28;20045;-81
2022/10/04 00:19:01;;;;;;;31.15;23.00;;;;;;;9.52;100.00;101680.41;5024156;28;20074;-81
2022/10/04 00:22:21;;;;;;;32.95;24.85;;;;;;;9.54;100.00;101682.88;5019548;28;20046;-80
2022/10/04 00:25:16;;;;;;;24.33;16.08;;;;;;;9.54;100.00;101669.81;5018833;28;20103;-81
2022/10/04 00:28:24;;;;;;;27.52;22.77;;;;;;;9.52;100.00;101672.56;5017516;28;20551;-81
2022/10/04 00:31:13;;;;;;;21.17;13.30;;;;;;;9.56;100.00;101665.31;5016572;28;20129;-80
2022/10/04 00:33:42;;;;;;;21.17;13.18;;;;;;;9.59;100.00;101676.34;5018942;28;20050;-79
2022/10/04 00:36:46;;;;;;;22.40;12.60;;;;;;;9.55;100.00;101667.09;5020442;28;20133;-80
2022/10/04 00:39:26;;;;;;;20.80;11.75;;;;;;;9.50;100.00;101673.63;5019942;28;20416;-81
2022/10/04 00:42:18;;;;;;;25.98;13.50;;;;;;;9.46;100.00;101661.78;5017555;28;20136;-80
2022/10/04 00:44:51;;;;;;;25.25;13.57;;;;;;;9.45;100.00;101668.78;5000100;28;20109;-80
2022/10/04 00:47:30;;;;;;;19.33;12.68;;;;;;;9.44;100.00;101675.00;5017354;28;20125;-81
2022/10/04 00:50:06;;;;;;;22.05;14.38;;;;;;;9.46;100.00;101667.81;5017396;28;20045;-79
2022/10/04 00:52:38;;;;;;;27.70;19.00;;;;;;;9.44;100.00;101658.47;5018770;28;20088;-80
2022/10/04 00:55:09;;;;;;;24.03;19.43;;;;;;;9.40;100.00;101663.13;5018504;28;20121;-81
2022/10/04 00:57:40;;;;;;;27.92;21.65;;;;;;;9.38;100.00;101654.59;5018060;28;20145;-79
2022/10/04 01:00:12;;;;;;;25.38;19.38;;;;;;;9.43;100.00;101656.81;5017771;28;20050;-80
2022/10/04 01:02:50;;;;;;;24.85;17.23;;;;;;;9.40;100.00;101652.69;5019114;28;20053;-80
2022/10/04 01:05:22;;;;;;;21.98;14.77;;;;;;;9.51;100.00;101659.63;5018030;28;20054;-80
2022/10/04 01:07:52;;;;;;;21.42;14.38;;;;;;;9.52;100.00;101662.13;5022303;28;20057;-80
2022/10/04 01:10:22;;;;;;;20.33;12.43;;;;;;;9.53;100.00;101669.00;5020379;28;20056;-81
2022/10/04 01:13:05;;;;;;;19.63;12.27;;;;;;;9.44;100.00;101666.31;5023470;28;20136;-79
2022/10/04 01:15:36;;;;;;;;;;;;;;;9.42;100.00;101660.38;5022798;28;20053;-81
2022/10/04 01:18:08;;;;;;;22.55;13.55;;;;;;;9.39;100.00;101660.63;5026663;28;19921;-79
2022/10/04 01:20:39;;;;;;;23.75;14.25;;;;;;;9.35;100.00;101654.81;5026994;28;20138;-80
2022/10/04 01:23:10;;;;;;;21.20;15.13;;;;;;;9.28;100.00;101659.72;5026197;28;20076;-80
2022/10/04 01:25:45;;;;;;;27.73;15.18;;;;;;;9.33;100.00;101659.34;5025291;28;20042;-81
2022/10/04 01:28:12;;;;;;;28.25;14.88;;;;;;;9.32;100.00;101660.28;5024062;28;20046;-81
2022/10/04 01:30:39;;;;;;;21.70;14.85;;;;;;;9.35;100.00;101660.06;5022710;28;20076;-82
2022/10/04 01:33:06;;;;;;;17.92;13.32;;;;;;;9.35;100.00;101657.44;5026377;28;20383;-82
2022/10/04 01:35:34;;;;;;;23.88;13.90;;;;;;;9.37;100.00;101662.53;5028002;28;20064;-80
2022/10/04 01:38:03;;;;;;;19.73;12.20;;;;;;;9.34;100.00;101654.94;5026080;28;20046;-81
2022/10/04 01:40:32;;;;;;;23.17;12.32;;;;;;;9.33;100.00;101646.28;5025662;28;20125;-81
2022/10/04 01:43:02;;;;;;;20.23;12.75;;;;;;;9.33;100.00;101648.91;5025929;28;20050;-81
2022/10/04 01:45:34;;;;;;;18.85;13.40;;;;;;;9.34;100.00;101639.28;5026463;28;20065;-81
2022/10/04 01:48:05;;;;;;;20.47;13.03;;;;;;;9.37;100.00;101644.25;5025856;28;20154;-80
2022/10/04 01:50:37;;;;;;;19.27;12.48;;;;;;;9.37;100.00;101632.03;5025804;28;20172;-80
2022/10/04 01:53:13;;;;;;;19.80;12.70;;;;;;;9.37;100.00;101641.63;5024924;28;20447;-81
2022/10/04 01:55:45;;;;;;;20.88;12.65;;;;;;;9.36;100.00;101637.38;5023514;28;20128;-81
2022/10/04 01:58:17;;;;;;;29.33;13.73;;;;;;;9.29;100.00;101629.19;5022598;28;20046;-81
2022/10/04 02:00:51;;;;;;;22.80;13.70;;;;;;;9.25;100.00;101638.22;5022263;28;20129;-82
2022/10/04 02:03:21;;;;;;;21.35;13.23;;;;;;;9.25;100.00;101633.00;5024004;28;20109;-83
2022/10/04 02:05:51;;;;;;;23.17;12.65;;;;;;;9.36;100.00;101648.66;5022749;28;20046;-84
2022/10/04 02:08:25;;;;;;;24.30;13.93;;;;;;;9.38;100.00;101635.47;5022987;28;20714;-82
2022/10/04 02:10:55;;;;;;;22.08;12.23;;;;;;;9.19;100.00;101623.88;5023661;28;20109;-82
2022/10/04 02:13:24;;;;;;;18.30;12.70;;;;;;;9.23;100.00;101645.34;5023525;28;20050;-82
2022/10/04 02:15:52;;;;;;;19.25;12.80;;;;;;;9.23;100.00;101637.50;5023928;28;20049;-82
2022/10/04 02:18:21;;;;;;;23.30;12.68;;;;;;;9.16;100.00;101634.56;5022515;28;20592;-83
2022/10/04 02:20:49;;;;;;;15.75;12.65;;;;;;;9.11;100.00;101634.09;5021538;28;20141;-80
2022/10/04 02:23:18;;;;;;;18.63;12.98;;;;;;;9.08;100.00;101628.28;5023751;28;20121;-82
2022/10/04 02:25:45;;;;;;;23.75;14.32;;;;;;;9.01;100.00;101624.50;5025403;28;20105;-83
2022/10/04 02:28:14;;;;;;;22.60;13.32;;;;;;;8.96;100.00;101615.28;5026910;28;20085;-82
2022/10/04 02:32:56;;;;;;;22.98;14.52;;;;;;;8.94;100.00;101625.00;5027968;28;20042;-83
2022/10/04 02:33:32;;;;;;;22.70;14.32;;;;;;;8.94;100.00;101645.06;5027389;28;20125;-83
2022/10/04 02:35:59;;;;;;;22.35;16.42;;;;;;;8.86;100.00;101622.16;5027870;28;20045;-82
2022/10/04 02:38:34;;;;;;;21.85;14.25;;;;;;;8.88;100.00;101620.28;5025503;28;20141;-80
2022/10/04 02:41:06;;;;;;;26.40;14.90;;;;;;;8.86;100.00;101611.72;5025465;28;20053;-80
2022/10/04 02:43:39;;;;;;;26.80;15.47;;;;;;;8.85;100.00;101617.91;5025828;28;20042;-80
2022/10/04 02:46:09;;;;;;;22.27;15.75;;;;;;;8.79;100.00;101600.13;5024243;28;20321;-79
2022/10/04 02:48:41;;;;;;;17.67;14.50;;;;;;;8.85;100.00;101610.06;5023142;28;20428;-81
2022/10/04 02:51:18;;;;;;;20.80;14.25;;;;;;;8.88;100.00;101606.38;5026604;28;20100;-79
2022/10/04 02:53:53;;;;;;;16.92;13.10;;;;;;;8.87;100.00;101597.72;5023091;28;20077;-79
2022/10/04 02:56:22;;;;;;;26.67;13.55;;;;;;;8.85;100.00;101589.19;5026125;28;20252;-81
2022/10/04 02:58:51;;;;;;;18.65;12.93;;;;;;;8.94;100.00;101583.25;5026554;28;20046;-81
2022/10/04 03:01:26;;;;;;;23.42;13.48;;;;;;;9.05;100.00;101599.81;5027690;28;20076;-80
2022/10/04 03:03:54;;;;;;;18.05;12.30;;;;;;;9.02;100.00;101587.00;5029130;28;20049;-80
2022/10/04 03:06:25;;;;;;;22.33;13.15;;;;;;;9.04;100.00;101582.47;5029059;28;20070;-78
2022/10/04 03:08:54;;;;;;;19.67;13.10;;;;;;;8.94;100.00;101570.19;5027988;28;20046;-82
2022/10/04 03:11:24;;;;;;;19.95;13.68;;;;;;;8.90;100.00;101563.56;5032144;28;20046;-82
2022/10/04 03:13:55;;;;;;;17.35;13.07;;;;;;;8.75;100.00;101561.31;5024744;28;20081;-84
2022/10/04 03:16:22;;;;;;;22.42;12.57;;;;;;;8.75;100.00;101561.31;5024068;28;20536;-82
2022/10/04 03:18:51;;;;;;;21.80;13.82;;;;;;;8.78;100.00;101567.13;5026422;28;20467;-82
2022/10/04 03:21:21;;;;;;;19.60;12.70;;;;;;;8.75;100.00;101569.97;5025436;28;20120;-80
2022/10/04 03:23:50;;;;;;;18.15;12.57;;;;;;;8.73;100.00;101568.44;5027634;28;20076;-81
2022/10/04 03:26:27;;;;;;;19.67;13.23;;;;;;;8.69;100.00;101567.03;5026424;28;20078;-80
2022/10/04 03:28:57;;;;;;;18.67;13.02;;;;;;;8.71;100.00;101565.97;5027403;28;20110;-80
2022/10/04 03:31:26;;;;;;;24.45;13.32;;;;;;;8.70;100.00;101558.25;5030170;28;20085;-79
2022/10/04 03:33:54;;;;;;;18.92;12.85;;;;;;;8.66;100.00;101547.22;5046729;28;20041;-80
2022/10/04 03:36:24;;;;;;;26.05;13.32;;;;;;;8.67;100.00;101548.06;5028455;28;20595;-81
2022/10/04 03:38:55;;;;;;;23.65;13.20;;;;;;;8.60;100.00;101555.53;5024901;28;20054;-79
2022/10/04 03:41:22;;;;;;;23.48;13.85;;;;;;;8.53;100.00;101563.00;5014573;28;20048;-79
2022/10/04 03:43:50;;;;;;;21.38;13.55;;;;;;;8.47;100.00;101553.06;5015965;28;20136;-79
2022/10/04 03:46:21;;;;;;;19.80;14.00;;;;;;;8.45;100.00;101559.38;5012644;28;20330;-79
2022/10/04 03:48:51;;;;;;;22.95;13.98;;;;;;;8.45;100.00;101568.03;4991831;28;20050;-78
2022/10/04 03:51:21;;;;;;;19.60;12.80;;;;;;;8.44;100.00;101568.97;5014176;28;20126;-79
2022/10/04 03:53:51;;;;;;;16.73;13.43;;;;;;;8.43;100.00;101564.69;5010111;28;20142;-79
2022/10/04 03:56:20;;;;;;;17.88;12.70;;;;;;;8.38;100.00;101563.38;5016813;28;20203;-78
2022/10/04 03:58:49;;;;;;;22.60;13.25;;;;;;;8.31;100.00;101550.78;5014833;28;20106;-78
2022/10/04 04:01:26;;;;;;;18.75;13.57;;;;;;;8.38;100.00;101547.75;5014011;28;20109;-78
2022/10/04 04:04:00;;;;;;;18.20;13.15;;;;;;;8.32;100.00;101546.41;5015574;28;20056;-79
2022/10/04 04:06:34;;;;;;;20.73;13.00;;;;;;;8.28;100.00;101527.56;5017181;28;20103;-79
2022/10/04 04:09:05;;;;;;;21.45;12.68;;;;;;;8.31;100.00;101527.31;5016297;28;20132;-79
2022/10/04 04:11:33;;;;;;;20.98;12.90;;;;;;;8.32;100.00;101539.44;5017259;28;20054;-79
2022/10/04 04:14:05;;;;;;;24.92;13.30;;;;;;;8.34;100.00;101548.94;5017186;28;20117;-79
2022/10/04 04:16:34;;;;;;;;;;;;;;;8.32;100.00;101539.44;5016888;28;20054;-79
2022/10/04 04:19:05;;;;;;;23.17;13.23;;;;;;;8.30;100.00;101545.69;5015816;28;20016;-78
2022/10/04 04:21:32;;;;;;;27.30;14.73;;;;;;;8.20;100.00;101542.13;5017292;28;20056;-79
2022/10/04 04:24:04;;;;;;;18.92;12.95;;;;;;;8.18;100.00;101544.84;5016843;28;20105;-79
2022/10/04 04:26:38;;;;;;;24.48;13.40;;;;;;;8.15;100.00;101541.66;5015597;28;20100;-79
2022/10/04 04:29:09;;;;;;;22.42;14.43;;;;;;;8.16;100.00;101544.16;5015500;28;20046;-79
2022/10/04 04:31:43;;;;;;;23.25;13.15;;;;;;;8.19;100.00;101554.34;5015576;28;20050;-80
2022/10/04 04:34:19;;;;;;;21.65;13.75;;;;;;;8.14;100.00;101540.81;5013629;28;20150;-78
2022/10/04 04:36:46;;;;;;;23.63;14.18;;;;;;;8.13;100.00;101549.59;5014163;28;20088;-78
2022/10/04 04:39:36;;;;;;;18.88;13.18;;;;;;;8.12;100.00;101547.94;5014858;28;20077;-79
2022/10/04 04:42:09;;;;;;;20.83;13.95;;;;;;;8.10;100.00;101547.22;5014043;28;20053;-77
2022/10/04 04:44:37;;;;;;;21.42;15.02;;;;;;;8.11;100.00;101548.88;5012615;28;20437;-78
2022/10/04 04:47:12;;;;;;;22.25;14.40;;;;;;;8.08;100.00;101549.13;5012645;28;20432;-78
2022/10/04 04:49:40;;;;;;;22.40;13.13;;;;;;;8.10;100.00;101549.00;5012127;28;20053;-78
2022/10/04 04:52:16;;;;;;;23.00;13.32;;;;;;;8.05;100.00;101541.53;5014888;28;20524;-79
2022/10/04 04:54:45;;;;;;;21.95;13.80;;;;;;;8.09;100.00;101542.13;5015370;28;20046;-77
2022/10/04 04:57:16;;;;;;;23.23;13.98;;;;;;;8.10;100.00;101528.13;5016231;28;20104;-79
2022/10/04 04:59:45;;;;;;;18.65;13.38;;;;;;;8.14;100.00;101530.41;5016277;28;20133;-79
2022/10/04 05:05:18;;;;;;;23.88;14.10;;;;;;;8.08;100.00;101524.81;5155182;27;20901;-79
2022/10/04 05:07:45;;;;;;;25.20;14.88;;;;;;;8.06;100.00;101526.72;5156203;27;20077;-79
2022/10/04 05:10:35;;;;;;;22.77;13.50;;;;;;;8.08;100.00;101524.81;5154537;27;20078;-79
2022/10/04 05:13:03;;;;;;;22.38;14.73;;;;;;;8.04;100.00;101528.59;5149017;27;20224;-78
2022/10/04 05:18:16;;;;;;;20.63;14.02;;;;;;;7.96;100.00;101521.41;5096881;22;20112;-81
2022/10/04 05:20:53;;;;;;;23.25;14.68;;;;;;;7.86;100.00;101510.00;5075334;28;20052;-79
2022/10/04 05:23:25;;;;;;;20.83;14.63;;;;;;;7.88;100.00;101514.16;5075865;28;20044;-80
2022/10/04 05:25:54;;;;;;;;;;;;;;;7.94;100.00;101518.09;5075013;28;20522;-78
2022/10/04 05:28:25;;;;;;;24.38;14.27;;;;;;;7.84;100.00;101512.75;5074085;28;19932;-79
2022/10/04 05:31:07;;;;;;;23.83;14.20;;;;;;;7.87;100.00;101516.88;5065795;28;20072;-80
2022/10/04 05:33:46;;;;;;;22.95;13.75;;;;;;;7.85;100.00;101521.38;5059295;28;20532;-82
2022/10/04 05:36:46;;;;;;;24.08;14.40;;;;;;;7.75;100.00;101523.03;5059401;28;20049;-81
2022/10/04 05:39:26;;;;;;;21.88;14.27;;;;;;;7.69;100.00;101506.06;5058507;28;20048;-81
2022/10/04 05:42:01;;;;;;;23.70;14.30;;;;;;;7.84;100.00;101511.91;5060699;28;20047;-81
2022/10/04 05:44:31;;;;;;;30.80;14.52;;;;;;;7.72;100.00;101502.41;5059084;28;20045;-81
2022/10/04 05:47:06;;;;;;;22.48;14.27;;;;;;;7.65;100.00;101502.88;5059110;28;20041;-81
2022/10/04 05:49:42;;;;;;;25.35;14.20;;;;;;;7.83;100.00;101525.88;5059845;28;20057;-82
2022/10/04 05:52:16;;;;;;;23.73;15.15;;;;;;;7.81;100.00;101512.13;5058483;28;20053;-81
2022/10/04 05:54:50;;;;;;;26.15;15.90;;;;;;;7.80;100.00;101500.06;5058668;28;20423;-80
2022/10/04 05:57:44;;;;;;;28.70;14.73;;;;;;;7.77;100.00;101508.09;5057027;28;20056;-81
2022/10/04 06:00:50;;;;;;;21.08;16.17;;;;;;;7.70;100.00;101489.50;5054630;28;20500;-81
2022/10/04 06:04:05;;;;;;;21.50;14.75;;;;;;;7.92;100.00;101513.00;5031628;28;20056;-80
2022/10/04 06:06:58;;;;;;;30.48;15.75;;;;;;;7.80;100.00;101498.28;5147155;22;20078;-81
2022/10/04 06:10:14;;;;;;;27.25;16.08;;;;;;;7.80;100.00;101494.84;5061300;28;20132;-82
2022/10/04 06:13:27;;;;;;;26.65;15.55;;;;;;;7.79;100.00;101501.84;4978013;28;20106;-82
2022/10/04 06:19:25;;;;;;;26.55;17.15;;;;;;;7.95;100.00;101525.78;5035948;22;20504;-79
2022/10/04 06:22:13;;;;;;;24.05;16.25;;;;;;;7.99;100.00;101529.00;5033920;28;20045;-78
2022/10/04 06:24:43;;;;;;;25.80;17.10;;;;;;;8.11;100.00;101532.41;5036592;28;20145;-79
2022/10/04 06:27:14;;;;;;;26.95;16.60;;;;;;;8.39;100.00;101512.88;5037053;28;20057;-78
2022/10/04 06:29:47;;;;;;;30.80;17.60;;;;;;;8.44;100.00;101518.56;5024165;28;20075;-78
2022/10/04 06:32:37;;;;;;;29.67;16.92;;;;;;;8.61;100.00;101518.88;5030243;28;20117;-78
2022/10/04 06:35:17;;;;;;;28.20;16.77;;;;;;;8.63;100.00;101508.31;5013698;28;20092;-78
2022/10/04 06:38:10;;;;;;;29.35;17.80;;;;;;;8.54;100.00;101504.66;5017881;28;20056;-78
2022/10/04 06:40:54;;;;;;;27.20;17.42;;;;;;;8.54;100.00;101496.84;5035936;28;20137;-78
2022/10/04 06:43:38;;;;;;;32.92;18.98;;;;;;;8.49;100.00;101499.00;5038007;28;20462;-78
2022/10/04 06:46:14;;;;;;;31.42;18.65;;;;;;;8.54;100.00;101503.84;5018175;28;20049;-78
2022/10/04 06:49:04;;;;;;;33.05;18.65;;;;;;;8.63;100.00;101501.34;5025929;28;20500;-78
2022/10/04 06:51:45;;;;;;;31.20;18.88;;;;;;;8.51;100.00;101510.13;4997531;28;20559;-78
2022/10/04 06:54:31;;;;;;;34.85;19.75;;;;;;;8.51;100.00;101509.28;5016345;28;20050;-77
2022/10/04 06:57:15;;;;;;;34.97;20.70;;;;;;;8.71;100.00;101518.16;5030706;28;20049;-78
2022/10/04 07:00:05;;;;;;;36.45;21.27;;;;;;;8.71;100.00;101503.34;5034597;28;20128;-78
2022/10/04 07:02:40;;;;;;;32.97;20.55;;;;;;;8.86;100.00;101507.34;5035181;28;20397;-78
2022/10/04 07:05:17;;;;;;;37.45;21.70;;;;;;;9.13;100.00;101514.69;5031656;28;20160;-79
2022/10/04 07:07:49;;;;;;;33.42;21.98;;;;;;;9.32;100.00;101514.84;5032313;28;20049;-80
2022/10/04 07:10:28;;;;;;;37.15;20.55;;;;;;;9.53;100.00;101514.84;5040393;28;20231;-80
2022/10/04 07:13:06;;;;;;;29.13;19.60;;;;;;;9.54;100.00;101510.44;5040943;28;20061;-79
2022/10/04 07:15:47;;;;;;;29.73;18.27;;;;;;;9.64;100.00;101509.56;5034085;28;20136;-78
2022/10/04 07:18:23;;;;;;;35.25;18.05;;;;;;;9.89;100.00;101510.13;5036757;28;20124;-79
2022/10/04 07:20:59;;;;;;;29.73;17.23;;;;;;;10.06;100.00;101498.19;5040080;28;20132;-79
2022/10/04 07:23:30;;;;;;;29.35;17.13;;;;;;;10.14;100.00;101511.44;5026665;28;20050;-80
2022/10/04 07:26:02;;;;;;;28.83;16.50;;;;;;;10.57;100.00;101513.81;5039128;28;20132;-80
2022/10/04 07:31:26;;;;;;;25.17;16.50;;;;;;;10.51;100.00;101520.41;5037806;28;20080;-79
2022/10/04 07:33:57;;;;;;;24.13;16.80;;;;;;;10.28;100.00;101509.34;5041013;28;20077;-79
2022/10/04 07:36:29;;;;;;;29.75;16.48;;;;;;;10.56;100.00;101523.44;5041412;28;20075;-79
2022/10/04 07:39:00;;;;;;;24.40;16.50;;;;;;;10.34;100.00;101522.84;5038665;28;20052;-79
2022/10/04 07:41:33;;;;;;;24.58;15.75;;;;;;;10.39;100.00;101526.72;5031362;28;20526;-80
2022/10/04 07:44:03;;;;;;;27.38;16.65;;;;;;;10.69;100.00;101527.63;5036153;28;20049;-80
2022/10/04 07:46:43;;;;;;;25.67;15.85;;;;;;;10.54;100.00;101529.78;5043491;28;20072;-77
2022/10/04 07:49:15;;;;;;;27.70;16.88;;;;;;;10.44;100.00;101528.91;5040775;28;20507;-78
2022/10/04 07:52:07;;;;;;;24.80;16.83;;;;;;;10.41;100.00;101537.03;5038503;28;20128;-79
2022/10/04 07:54:40;;;;;;;24.02;16.17;;;;;;;10.33;100.00;101540.34;5024979;28;20045;-79
2022/10/04 07:57:15;;;;;;;29.63;17.13;;;;;;;10.20;100.00;101532.72;5025609;28;20121;-79
2022/10/04 07:59:48;;;;;;;26.10;16.90;;;;;;;10.35;100.00;101529.75;5024753;28;20051;-79
2022/10/04 08:02:24;;;;;;;27.35;17.05;;;;;;;10.18;100.00;101529.38;5039398;28;20136;-80
2022/10/04 08:05:06;;;;;;;26.33;17.25;;;;;;;10.18;100.00;101537.22;5038478;28;20124;-79
2022/10/04 08:07:50;;;;;;;26.90;17.80;;;;;;;10.25;100.00;101517.44;5033680;28;20056;-79
2022/10/04 08:10:24;;;;;;;25.17;16.88;;;;;;;10.21;100.00;101534.38;5035683;28;20400;-80
2022/10/04 08:12:57;;;;;;;22.05;16.17;;;;;;;10.29;100.00;101539.78;5037110;28;20056;-79
2022/10/04 08:15:34;;;;;;;24.20;16.20;;;;;;;10.45;100.00;101535.81;5027128;28;20054;-79
2022/10/04 08:18:15;;;;;;;22.38;15.82;;;;;;;10.61;100.00;101528.28;5019333;28;20057;-79
2022/10/04 08:20:49;;;;;;;21.65;14.50;;;;;;;10.89;100.00;101522.25;5018398;28;20524;-79
2022/10/04 08:23:40;;;;;;;20.27;13.38;;;;;;;11.26;100.00;101537.31;5026284;28;20117;-80
2022/10/04 08:26:24;;;;;;;21.77;14.00;;;;;;;11.24;100.00;101528.78;5034513;28;20136;-80
2022/10/04 08:32:05;;;;;;;19.35;13.13;;;;;;;11.75;97.95;101527.59;5006116;28;20080;-79
2022/10/04 08:34:58;;;;;;;22.58;12.68;;;;;;;11.76;96.21;101521.38;5034518;28;20051;-79
2022/10/04 08:37:36;;;;;;;20.65;11.63;;;;;;;11.95;96.23;101518.72;5039550;28;20112;-80
2022/10/04 08:40:38;;;;;;;16.17;11.45;;;;;;;12.12;94.80;101519.78;5033117;28;20457;-80
2022/10/04 08:43:29;;;;;;;15.75;11.00;;;;;;;12.09;94.80;101510.38;5022736;28;20056;-80
2022/10/04 08:46:42;;;;;;;16.23;11.13;;;;;;;11.86;95.04;101494.19;5037490;28;20072;-79
2022/10/04 08:49:39;;;;;;;20.17;10.38;;;;;;;12.03;94.70;101497.03;4976932;28;20494;-80
2022/10/04 08:52:41;;;;;;;16.90;11.38;;;;;;;12.38;94.95;101506.78;4978239;28;20051;-80
2022/10/04 08:55:33;;;;;;;18.02;11.15;;;;;;;12.28;94.13;101507.69;5018036;28;20074;-80
2022/10/04 08:58:35;;;;;;;15.30;10.38;;;;;;;12.48;94.16;101505.78;5019635;28;20106;-78
2022/10/04 09:01:28;;;;;;;20.50;11.07;;;;;;;12.53;93.39;101515.84;5020152;28;20132;-80
2022/10/04 09:04:24;;;;;;;17.85;10.63;;;;;;;12.41;93.00;101506.50;5020798;28;20173;-80
2022/10/04 09:07:04;;;;;;;18.50;11.43;;;;;;;12.45;93.24;101510.50;5030821;28;20104;-79
2022/10/04 09:09:53;;;;;;;13.45;10.50;;;;;;;13.02;91.66;101517.16;5037133;28;20053;-79
2022/10/04 09:12:50;;;;;;;17.20;10.82;;;;;;;13.18;91.17;101500.75;5027040;28;20284;-79
2022/10/04 09:15:24;;;;;;;20.40;10.60;;;;;;;13.61;89.78;101510.44;5013268;28;20129;-79
2022/10/04 09:17:57;;;;;;;17.33;10.23;;;;;;;13.35;87.86;101499.88;5017755;28;20046;-79
2022/10/04 09:20:32;;;;;;;16.92;9.60;;;;;;;13.34;89.41;101492.97;5023882;28;20042;-80
2022/10/04 09:23:11;;;;;;;13.70;9.40;;;;;;;13.38;89.89;101490.88;5026619;28;20586;-79
2022/10/04 09:26:05;;;;;;;17.83;10.18;;;;;;;13.47;89.04;101496.03;5033383;28;20045;-79
2022/10/04 09:29:08;;;;;;;18.83;10.10;;;;;;;13.55;89.24;101490.84;5022170;28;20056;-80
2022/10/04 09:31:55;;;;;;;;;;;;;;;13.79;88.20;101498.03;5027609;28;20497;-80
2022/10/04 09:34:37;;;;;;;12.07;9.40;;;;;;;13.60;89.01;101498.25;5038823;28;20403;-79
2022/10/04 09:37:20;;;;;;;13.23;9.70;;;;;;;13.50;88.05;101493.09;5038573;28;20060;-80
2022/10/04 09:40:09;;;;;;;15.95;9.73;;;;;;;13.37;87.85;101482.16;5038684;28;20069;-80
2022/10/04 09:43:17;;;;;;;17.08;9.70;;;;;;;13.58;88.48;101482.63;5038774;28;20049;-79
2022/10/04 09:46:03;;;;;;;13.38;9.48;;;;;;;13.81;87.58;101479.47;5019213;28;20052;-80
2022/10/04 09:48:39;;;;;;;16.92;9.27;;;;;;;13.83;87.05;101482.75;5017279;28;20046;-79
2022/10/04 09:51:35;;;;;;;17.55;10.90;;;;;;;13.96;86.64;101480.53;5021178;28;20523;-80
2022/10/04 09:54:15;;;;;;;14.05;9.73;;;;;;;14.03;86.16;101476.28;5022457;28;20085;-79
2022/10/04 09:57:07;;;;;;;11.30;9.30;;;;;;;14.01;85.70;101469.53;5022581;28;20488;-80
2022/10/04 10:00:05;;;;;;;11.52;9.10;;;;;;;14.16;85.44;101462.69;5022463;28;20058;-79
2022/10/04 10:03:11;;;;;;;15.77;9.48;;;;;;;14.09;84.59;101459.06;5032863;28;20050;-80
2022/10/04 10:06:08;;;;;;;15.10;9.07;;;;;;;14.30;84.24;101464.69;5029049;28;20050;-79
2022/10/04 10:08:46;;;;;;;12.73;9.38;;;;;;;14.55;83.73;101457.72;5038042;28;20077;-79
2022/10/04 10:14:58;;;;;;;18.27;9.63;;;;;;;14.95;83.71;101462.22;5028790;28;20100;-79
2022/10/04 10:17:36;;;;;;;14.30;9.05;;;;;;;14.73;81.79;101455.75;5030212;28;20083;-80
2022/10/04 10:20:35;;;;;;;16.80;9.38;;;;;;;14.83;81.75;101451.16;5036485;28;20525;-78
2022/10/04 10:23:25;;;;;;;17.35;8.60;;;;;;;15.04;80.76;101449.88;5040922;28;20115;-80
2022/10/04 10:26:25;;;;;;;12.25;8.43;;;;;;;15.08;80.53;101454.66;5040659;28;20045;-79
2022/10/04 10:29:24;;;;;;;12.15;7.97;;;;;;;15.23;80.80;101450.34;5007189;28;20053;-80
2022/10/04 10:32:08;;;;;;;11.93;8.30;;;;;;;15.03;80.89;101456.13;5035672;28;20113;-79
2022/10/04 10:35:13;;;;;;;12.50;8.02;;;;;;;15.24;80.05;101437.97;5040455;28;20613;-79
2022/10/04 10:37:53;;;;;;;11.82;8.25;;;;;;;15.33;79.76;101447.53;5033508;28;20080;-78
2022/10/04 10:40:35;;;;;;;12.30;7.93;;;;;;;15.51;78.43;101448.16;5037864;28;20128;-79
2022/10/04 10:43:28;;;;;;;14.48;7.60;;;;;;;15.31;79.48;101443.41;5039656;28;20059;-80
2022/10/04 10:46:06;;;;;;;13.35;8.93;;;;;;;15.36;79.84;101443.72;5039694;28;20049;-79
2022/10/04 10:48:51;;;;;;;14.20;7.97;;;;;;;15.71;79.54;101450.44;5039519;28;20050;-80
2022/10/04 10:51:45;;;;;;;12.05;7.97;;;;;;;16.04;78.53;101448.50;5039863;28;20179;-80
2022/10/04 10:54:55;;;;;;;10.30;7.18;;;;;;;15.90;76.87;101434.22;5039948;28;20128;-79
2022/10/04 10:57:45;;;;;;;9.93;7.32;;;;;;;15.61;76.75;101447.97;5040588;28;20045;-79
2022/10/04 11:00:21;;;;;;;15.30;7.38;;;;;;;15.81;77.19;101446.59;5025944;28;20137;-80
2022/10/04 11:03:21;;;;;;;11.13;7.53;;;;;;;15.66;76.44;101434.28;5039530;28;20140;-80
2022/10/04 11:06:09;;;;;;;14.02;7.65;;;;;;;16.03;75.91;101429.22;5039033;28;20041;-80
2022/10/04 11:09:15;;;;;;;13.27;7.75;;;;;;;16.23;76.87;101425.13;5038321;28;20128;-80
2022/10/04 11:12:26;;;;;;;10.65;7.25;;;;;;;16.14;76.36;101409.50;5042505;28;20088;-80
2022/10/04 11:15:29;;;;;;;13.15;7.38;;;;;;;16.46;76.34;101400.56;5040047;28;20053;-80
2022/10/04 11:18:14;;;;;;;13.25;7.40;;;;;;;16.12;76.69;101417.59;5039124;28;20173;-80
2022/10/04 11:21:31;;;;;;;14.48;7.60;;;;;;;16.47;76.18;101413.59;5040087;28;20068;-80
2022/10/04 11:24:42;;;;;;;11.05;6.97;;;;;;;16.50;75.41;101421.19;4983569;28;20054;-79
2022/10/04 11:27:27;;;;;;;10.02;6.60;;;;;;;16.55;75.16;101404.78;5042389;28;20053;-79
2022/10/04 11:30:14;;;;;;;11.85;7.00;;;;;;;16.51;74.44;101398.22;5043589;28;20049;-79
2022/10/04 11:33:05;;;;;;;14.80;6.95;;;;;;;16.25;74.64;101401.19;5044359;28;20049;-80
2022/10/04 11:35:59;;;;;;;11.00;6.70;;;;;;;16.41;74.50;101381.78;5027558;28;20129;-81
2022/10/04 11:38:47;;;;;;;11.18;6.68;;;;;;;16.45;73.96;101377.78;5039336;28;20049;-79
2022/10/04 11:41:20;;;;;;;10.25;6.18;;;;;;;16.85;75.33;101372.22;5039356;28;20524;-81
2022/10/04 11:44:25;;;;;;;11.55;7.10;;;;;;;17.22;74.38;101384.56;5036789;28;20543;-79
2022/10/04 11:47:00;;;;;;;9.45;6.28;;;;;;;17.23;74.36;101380.09;5036321;28;20045;-78
2022/10/04 11:49:47;;;;;;;13.75;6.40;;;;;;;17.11;72.86;101373.59;5036010;28;20530;-79
2022/10/04 11:53:02;;;;;;;10.68;6.43;;;;;;;16.84;72.20;101373.22;5037004;28;20145;-79
2022/10/04 11:55:52;;;;;;;9.02;6.43;;;;;;;17.18;72.77;101371.88;5035393;28;20051;-78
2022/10/04 11:58:31;;;;;;;12.88;6.75;;;;;;;17.43;72.29;101368.00;5037374;28;20140;-79
2022/10/04 12:01:29;;;;;;;13.07;6.38;;;;;;;17.57;72.09;101356.56;5039202;28;20089;-79
2022/10/04 12:04:25;;;;;;;10.40;6.63;;;;;;;17.64;71.23;101364.56;5039980;28;20520;-80
2022/10/04 12:07:07;;;;;;;9.65;7.15;;;;;;;17.55;72.57;101357.72;5038318;28;20372;-80
2022/10/04 12:09:41;;;;;;;11.57;7.03;;;;;;;17.30;73.04;101373.09;5037473;28;20107;-79
2022/10/04 12:12:37;;;;;;;10.32;6.97;;;;;;;16.86;72.78;101373.03;5037918;28;20118;-80
2022/10/04 12:15:22;;;;;;;12.77;6.35;;;;;;;17.12;72.85;101370.78;5035426;28;20072;-79
2022/10/04 12:18:23;;;;;;;7.72;6.28;;;;;;;17.43;72.44;101375.09;5036316;28;20053;-78
2022/10/04 12:21:39;;;;;;;11.88;6.32;;;;;;;17.69;71.50;101353.47;5062066;22;20049;-84
2022/10/04 12:25:04;;;;;;;12.18;6.28;;;;;;;17.65;70.65;101350.38;4997508;28;20109;-83
2022/10/04 12:31:21;;;;;;;12.75;6.60;;;;;;;17.80;71.43;101345.06;4905083;29;20059;-84
2022/10/04 12:34:23;;;;;;;10.90;6.78;;;;;;;17.61;70.47;101319.13;4998749;28;20505;-85